Time;durP1;ratioP1;P1;durP2;ratioP2;P2;SDS_P1;SDS_P2;PMS_P1;PMS_P2;Temp;Humidity;BMP_temperature;BMP_pressure;BME280_temperature;BME280_humidity;BME280_pressure;Samples;Min_cycle;Max_cycle;Signal;HPM_P1;HPM_P2
2021/10/06 00:01:32;;;;;;;23.20;14.85;;;;;;;6.25;71.84;101223.55;1726717;82;21062;-71
2021/10/06 00:03:59;;;;;;;22.05;14.00;;;;;;;6.24;71.97;101215.63;1728512;83;21530;-71
2021/10/06 00:06:25;;;;;;;;;;;;;;;6.30;71.92;101213.47;1732954;82;20956;-71
2021/10/06 00:08:51;;;;;;;23.30;14.20;;;;;;;6.30;71.95;101219.72;1730909;82;20103;-71
2021/10/06 00:11:18;;;;;;;19.45;14.13;;;;;;;6.19;72.31;101218.14;1732204;81;20991;-72
2021/10/06 00:13:45;;;;;;;25.85;15.10;;;;;;;6.15;72.57;101220.43;1730829;82;21064;-71
2021/10/06 00:16:12;;;;;;;23.25;15.48;;;;;;;6.14;72.81;101219.27;1723849;81;21540;-71
2021/10/06 00:18:39;;;;;;;21.33;13.68;;;;;;;6.19;72.74;101220.33;1728868;81;21038;-72
2021/10/06 00:21:06;;;;;;;22.67;13.75;;;;;;;6.26;72.64;101227.92;1731670;82;21043;-71
2021/10/06 00:23:33;;;;;;;21.65;13.68;;;;;;;6.28;72.66;101223.64;1716735;82;21109;-71
2021/10/06 00:26:00;;;;;;;21.20;13.75;;;;;;;6.24;72.78;101217.81;1728835;82;21540;-72
2021/10/06 00:28:28;;;;;;;20.65;13.62;;;;;;;6.21;72.85;101216.05;1718661;82;21004;-71
2021/10/06 00:30:56;;;;;;;20.20;13.18;;;;;;;6.17;72.94;101216.15;1717225;82;21435;-71
2021/10/06 00:33:25;;;;;;;23.25;13.45;;;;;;;6.18;73.02;101225.94;1704276;83;21031;-72
2021/10/06 00:35:51;;;;;;;22.00;13.72;;;;;;;6.24;73.03;101216.98;1700724;82;21047;-72
2021/10/06 00:38:17;;;;;;;;;;;;;;;6.25;73.18;101223.55;1709593;83;21007;-72
2021/10/06 00:40:43;;;;;;;20.23;12.60;;;;;;;6.21;73.40;101219.59;1689072;83;20109;-71
2021/10/06 00:43:10;;;;;;;20.52;13.35;;;;;;;6.13;73.71;101223.03;1717379;82;20968;-71
2021/10/06 00:45:36;;;;;;;19.50;12.40;;;;;;;6.17;73.75;101227.80;1709387;82;21063;-71
2021/10/06 00:48:03;;;;;;;23.50;12.55;;;;;;;6.23;73.61;101224.29;1699253;82;21027;-72
2021/10/06 00:50:29;;;;;;;;;;;;;;;6.26;73.54;101218.98;1721350;82;21070;-72
2021/10/06 00:52:56;;;;;;;18.30;12.05;;;;;;;6.22;73.69;101219.91;1719119;82;20127;-72
2021/10/06 00:55:22;;;;;;;19.67;12.40;;;;;;;6.14;73.99;101220.11;1716082;83;21726;-71
2021/10/06 00:57:48;;;;;;;;;;;;;;;6.17;73.96;101222.39;1730795;82;21522;-72
2021/10/06 01:00:15;;;;;;;20.70;12.37;;;;;;;6.26;73.74;101213.56;1724016;81;20115;-72
2021/10/06 01:02:42;;;;;;;20.85;11.48;;;;;;;6.28;73.78;101217.72;1717036;82;21008;-71
2021/10/06 01:05:09;;;;;;;18.15;12.10;;;;;;;6.29;73.86;101223.45;1701175;83;21063;-71
2021/10/06 01:07:35;;;;;;;20.75;13.20;;;;;;;6.26;74.07;101220.33;1705719;83;21007;-70
2021/10/06 01:10:06;;;;;;;17.55;12.43;;;;;;;6.23;74.25;101217.53;1714895;82;21027;-71
2021/10/06 01:12:33;;;;;;;17.05;11.60;;;;;;;6.22;74.37;101216.37;1726975;82;20978;-71
2021/10/06 01:15:00;;;;;;;14.55;10.40;;;;;;;6.26;74.32;101214.92;1725392;81;21069;-71
2021/10/06 01:17:26;;;;;;;18.65;10.98;;;;;;;6.33;74.19;101217.11;1732788;81;21287;-72
2021/10/06 01:19:52;;;;;;;18.15;11.73;;;;;;;6.33;74.23;101217.11;1718084;82;21055;-71
2021/10/06 01:22:19;;;;;;;20.12;11.33;;;;;;;6.29;74.44;101220.75;1718122;83;20999;-71
2021/10/06 01:24:46;;;;;;;17.27;11.60;;;;;;;6.27;74.53;101214.69;1710030;82;21047;-71
2021/10/06 01:27:12;;;;;;;17.23;11.53;;;;;;;6.29;74.62;101213.98;1731495;82;21003;-71
2021/10/06 01:29:39;;;;;;;19.73;11.33;;;;;;;6.35;74.49;101213.14;1730650;83;21018;-71
2021/10/06 01:32:15;;;;;;;15.85;11.20;;;;;;;6.36;74.47;101218.03;1730860;83;21494;-72
2021/10/06 01:34:41;;;;;;;17.02;11.43;;;;;;;6.32;74.61;101223.55;1730068;82;21593;-71
2021/10/06 01:37:08;;;;;;;21.17;11.43;;;;;;;6.27;74.76;101221.45;1704477;83;21007;-72
2021/10/06 01:39:34;;;;;;;;;;;;;;;6.30;74.76;101217.53;1732966;82;21092;-71
2021/10/06 01:42:01;;;;;;;15.15;10.03;;;;;;;6.36;74.53;101220.22;1708479;83;20156;-71
2021/10/06 01:44:27;;;;;;;15.60;10.72;;;;;;;6.37;74.56;101226.47;1701060;83;21074;-71
2021/10/06 01:46:54;;;;;;;14.53;10.15;;;;;;;6.37;74.60;101224.60;1721312;82;21482;-72
2021/10/06 01:49:20;;;;;;;17.42;10.25;;;;;;;6.33;74.73;101220.65;1725641;83;21078;-71
2021/10/06 01:51:46;;;;;;;18.95;10.35;;;;;;;6.27;74.91;101221.45;1701880;83;21019;-71
2021/10/06 01:54:13;;;;;;;14.43;9.78;;;;;;;6.26;74.98;101230.63;1729272;82;21008;-71
2021/10/06 01:56:39;;;;;;;16.25;10.32;;;;;;;6.27;75.07;101228.22;1743319;82;21015;-71
2021/10/06 01:59:06;;;;;;;16.57;10.35;;;;;;;6.36;74.94;101229.69;1745748;81;21070;-71
2021/10/06 02:01:32;;;;;;;16.65;9.45;;;;;;;6.38;74.89;101226.25;1730071;82;21560;-71
2021/10/06 02:03:59;;;;;;;16.90;10.82;;;;;;;6.34;74.97;101232.30;1712488;83;21063;-71
2021/10/06 02:06:26;;;;;;;16.50;10.68;;;;;;;6.28;75.07;101224.48;1732290;82;20980;-72
2021/10/06 02:08:52;;;;;;;15.35;9.58;;;;;;;6.29;75.08;101231.56;1731627;82;21042;-71
2021/10/06 02:11:18;;;;;;;15.18;10.30;;;;;;;6.33;74.94;101232.81;1714454;83;20987;-71
2021/10/06 02:13:45;;;;;;;16.32;9.80;;;;;;;6.35;75.06;101231.23;1720597;83;21047;-71
2021/10/06 02:16:11;;;;;;;;;;;;;;;6.31;75.22;101234.88;1728792;82;21078;-71
2021/10/06 02:18:38;;;;;;;17.10;10.55;;;;;;;6.25;75.35;101239.77;1706497;82;20136;-72
2021/10/06 02:21:05;;;;;;;17.30;10.18;;;;;;;6.15;75.59;101239.35;1728140;83;21007;-71
2021/10/06 02:23:31;;;;;;;14.45;9.85;;;;;;;6.16;75.59;101246.44;1727875;82;20991;-71
2021/10/06 02:25:57;;;;;;;17.40;10.10;;;;;;;6.21;75.46;101247.14;1705939;82;21002;-71
2021/10/06 02:28:24;;;;;;;15.95;9.88;;;;;;;6.24;75.44;101251.63;1710771;82;20983;-71
2021/10/06 02:30:50;;;;;;;12.68;9.15;;;;;;;6.24;75.50;101242.67;1730403;83;21601;-71
2021/10/06 02:33:17;;;;;;;13.58;9.58;;;;;;;6.20;75.67;101248.20;1736187;82;21014;-71
2021/10/06 02:35:43;;;;;;;15.20;9.53;;;;;;;6.16;75.80;101253.20;1730316;81;21525;-72
2021/10/06 02:38:10;;;;;;;15.38;9.85;;;;;;;6.19;75.87;101252.78;1740739;82;21065;-72
2021/10/06 02:40:37;;;;;;;16.80;9.50;;;;;;;6.19;75.87;101252.78;1734040;81;21034;-72
2021/10/06 02:43:03;;;;;;;13.22;9.23;;;;;;;6.16;76.02;101254.55;1695977;84;21476;-72
2021/10/06 02:45:29;;;;;;;;;;;;;;;6.16;76.02;101254.55;1698755;84;21055;-71
2021/10/06 02:47:56;;;;;;;13.58;8.53;;;;;;;6.12;76.12;101260.56;1695866;84;20139;-71
2021/10/06 02:50:23;;;;;;;14.28;9.18;;;;;;;6.03;76.39;101260.42;1691120;83;21584;-71
2021/10/06 02:52:50;;;;;;;13.75;9.58;;;;;;;6.06;76.38;101259.50;1694820;83;21034;-71
2021/10/06 02:55:17;;;;;;;15.00;10.10;;;;;;;6.10;76.35;101263.46;1676224;84;21070;-71
2021/10/06 02:57:44;;;;;;;18.20;10.03;;;;;;;6.15;76.37;101273.67;1694811;84;20990;-70
2021/10/06 03:00:12;;;;;;;11.95;9.08;;;;;;;6.14;76.42;101275.53;1691547;84;21096;-71
2021/10/06 03:02:41;;;;;;;15.70;9.93;;;;;;;6.11;76.53;101275.11;1686554;84;21013;-71
2021/10/06 03:05:09;;;;;;;15.68;9.43;;;;;;;6.11;76.63;101274.59;1683074;83;21078;-71
2021/10/06 03:07:36;;;;;;;16.67;9.48;;;;;;;6.14;76.66;101276.89;1684682;84;21048;-71
2021/10/06 03:10:05;;;;;;;13.95;9.63;;;;;;;6.20;76.58;101282.02;1690118;84;21505;-71
2021/10/06 03:12:33;;;;;;;18.15;10.03;;;;;;;6.19;76.49;101288.45;1651680;84;21334;-71
2021/10/06 03:15:00;;;;;;;;;;;;;;;6.15;76.66;101282.61;1690741;84;21109;-71
2021/10/06 03:17:27;;;;;;;13.40;9.50;;;;;;;6.12;76.64;101291.14;1674612;84;20151;-70
2021/10/06 03:19:53;;;;;;;16.87;9.38;;;;;;;6.02;76.83;101297.98;1676264;83;21037;-71
2021/10/06 03:22:19;;;;;;;13.18;9.38;;;;;;;6.01;76.83;101294.44;1694157;84;20986;-71
2021/10/06 03:24:46;;;;;;;13.98;9.35;;;;;;;6.06;76.62;101290.59;1696761;82;21042;-71
2021/10/06 03:27:13;;;;;;;16.77;9.48;;;;;;;6.08;76.52;101295.29;1684680;84;21022;-71
2021/10/06 03:29:39;;;;;;;14.18;9.80;;;;;;;6.06;76.55;101292.48;1695972;83;21102;-71
2021/10/06 03:32:06;;;;;;;12.82;9.10;;;;;;;5.98;76.79;101292.98;1721318;82;21003;-72
2021/10/06 03:34:32;;;;;;;14.40;9.15;;;;;;;5.95;76.98;101293.37;1733733;82;21039;-71
2021/10/06 03:36:59;;;;;;;16.60;8.73;;;;;;;5.97;76.90;101296.72;1716336;83;21074;-70
2021/10/06 03:39:25;;;;;;;13.08;8.50;;;;;;;6.02;76.83;101294.77;1733911;81;21078;-71
2021/10/06 03:41:52;;;;;;;15.10;9.45;;;;;;;6.02;76.90;101294.77;1705255;82;20968;-72
2021/10/06 03:44:18;;;;;;;15.15;10.10;;;;;;;5.98;77.10;101298.91;1683563;83;21698;-72
2021/10/06 03:46:44;;;;;;;14.07;9.80;;;;;;;5.93;77.26;101299.52;1710328;82;21414;-72
2021/10/06 03:49:11;;;;;;;13.45;9.58;;;;;;;5.95;77.34;101298.77;1704516;82;21123;-71
2021/10/06 03:51:38;;;;;;;17.15;8.68;;;;;;;6.00;77.20;101299.52;1679292;83;21019;-71
2021/10/06 03:54:04;;;;;;;11.50;8.70;;;;;;;5.98;77.19;101294.86;1729105;81;21102;-71
2021/10/06 03:56:31;;;;;;;14.00;9.05;;;;;;;5.92;77.34;101291.08;1734018;82;21044;-71
2021/10/06 03:58:57;;;;;;;12.90;9.00;;;;;;;5.95;77.49;101300.67;1690933;83;21014;-70
2021/10/06 04:01:23;;;;;;;15.43;8.50;;;;;;;5.98;77.45;101300.27;1724454;82;21030;-71
2021/10/06 04:03:50;;;;;;;14.58;9.20;;;;;;;5.99;77.46;101301.91;1697014;83;21063;-71
2021/10/06 04:06:16;;;;;;;;;;;;;;;5.94;77.68;101297.64;1701919;83;21063;-71
2021/10/06 04:08:43;;;;;;;16.12;8.30;;;;;;;5.89;77.91;101304.17;1712166;83;20141;-71
2021/10/06 04:11:10;;;;;;;14.25;8.48;;;;;;;5.89;77.94;101308.22;1708979;83;21680;-71
2021/10/06 04:13:37;;;;;;;13.05;8.88;;;;;;;5.94;77.85;101308.45;1677760;83;21086;-71
2021/10/06 04:16:04;;;;;;;17.35;10.28;;;;;;;5.93;77.86;101309.48;1735319;82;21514;-71
2021/10/06 04:18:31;;;;;;;16.87;10.68;;;;;;;5.88;78.07;101311.98;1704004;83;21510;-71
2021/10/06 04:20:58;;;;;;;20.65;10.50;;;;;;;5.82;78.21;101309.52;1708619;83;21011;-71
2021/10/06 04:23:24;;;;;;;13.28;9.03;;;;;;;5.84;78.25;101311.52;1701776;83;21506;-71
2021/10/06 04:25:50;;;;;;;16.02;9.25;;;;;;;5.90;78.19;101320.19;1700094;83;21588;-71
2021/10/06 04:28:17;;;;;;;15.10;9.75;;;;;;;5.94;78.14;101315.22;1698866;83;21012;-71
2021/10/06 04:30:43;;;;;;;14.98;10.00;;;;;;;5.93;78.18;101319.78;1695690;83;21518;-71
2021/10/06 04:33:10;;;;;;;14.18;9.25;;;;;;;5.89;78.35;101320.38;1711014;83;20987;-71
2021/10/06 04:35:37;;;;;;;13.00;9.40;;;;;;;5.88;78.46;101318.19;1687557;82;21063;-71
2021/10/06 04:38:04;;;;;;;14.73;9.00;;;;;;;5.92;78.39;101318.11;1706852;83;21020;-71
2021/10/06 04:40:31;;;;;;;13.68;8.30;;;;;;;5.96;78.38;101316.67;1696015;83;21054;-71
2021/10/06 04:42:58;;;;;;;12.75;8.88;;;;;;;6.03;78.41;101309.92;1746614;82;21000;-71
2021/10/06 04:45:24;;;;;;;18.10;10.75;;;;;;;6.05;78.47;101320.03;1747445;81;21084;-71
2021/10/06 04:47:51;;;;;;;22.98;11.95;;;;;;;6.07;78.60;101320.65;1716885;82;21498;-71
2021/10/06 04:50:18;;;;;;;28.23;14.30;;;;;;;6.12;78.55;101326.80;1717801;82;21043;-70
2021/10/06 04:52:46;;;;;;;25.50;17.42;;;;;;;6.20;78.36;101330.14;1717690;83;21908;-71
2021/10/06 04:55:12;;;;;;;23.73;16.75;;;;;;;6.24;78.32;101323.80;1710652;82;21040;-69
2021/10/06 04:57:40;;;;;;;19.48;12.37;;;;;;;6.23;78.41;101331.11;1705003;83;21051;-69
2021/10/06 05:00:08;;;;;;;18.25;12.82;;;;;;;6.25;78.52;101328.18;1702332;83;21503;-70
2021/10/06 05:02:36;;;;;;;15.90;10.50;;;;;;;6.31;78.44;101329.54;1701533;83;21459;-69
2021/10/06 05:05:03;;;;;;;15.48;10.50;;;;;;;6.39;78.31;101331.22;1699473;83;21038;-70
2021/10/06 05:07:30;;;;;;;17.27;12.85;;;;;;;6.41;78.38;101333.22;1702122;83;21043;-70
2021/10/06 05:09:56;;;;;;;19.00;11.33;;;;;;;6.39;78.53;101338.83;1687895;85;21132;-70
2021/10/06 05:12:23;;;;;;;16.05;10.20;;;;;;;6.47;78.59;101340.50;1700278;83;21048;-69
2021/10/06 05:14:51;;;;;;;16.02;10.88;;;;;;;6.57;78.44;101347.69;1709083;83;21621;-70
2021/10/06 05:17:17;;;;;;;;;;;;;;;6.66;78.40;101353.75;1719164;83;21023;-71
2021/10/06 05:19:43;;;;;;;17.30;11.10;;;;;;;6.70;78.45;101347.69;1717733;83;20158;-70
2021/10/06 05:22:10;;;;;;;17.25;10.45;;;;;;;6.67;78.73;101352.69;1699079;83;21000;-71
2021/10/06 05:24:36;;;;;;;12.18;9.33;;;;;;;6.74;78.73;101354.36;1688576;83;21134;-71
2021/10/06 05:27:03;;;;;;;14.38;9.90;;;;;;;6.89;78.48;101346.03;1687958;85;21004;-70
2021/10/06 05:29:29;;;;;;;;;;;;;;;6.99;78.37;101350.50;1696969;84;21629;-71
2021/10/06 05:31:55;;;;;;;15.35;9.05;;;;;;;7.06;78.35;101349.98;1677215;85;20133;-71
2021/10/06 05:34:22;;;;;;;16.12;9.23;;;;;;;7.10;78.72;101351.75;1695135;85;21027;-71
2021/10/06 05:36:49;;;;;;;12.03;8.50;;;;;;;7.34;78.75;101361.40;1698291;82;20969;-71
2021/10/06 05:39:16;;;;;;;13.18;9.40;;;;;;;7.65;78.31;101357.98;1695188;85;21058;-71
2021/10/06 05:41:42;;;;;;;12.90;9.35;;;;;;;7.92;77.64;101363.63;1695024;84;21067;-71
2021/10/06 05:44:09;;;;;;;20.40;13.55;;;;;;;8.13;77.24;101358.42;1691977;82;21046;-71
2021/10/06 05:46:36;;;;;;;15.20;12.80;;;;;;;8.41;76.66;101361.63;1737822;82;21569;-71
2021/10/06 05:49:02;;;;;;;15.90;12.25;;;;;;;8.74;75.87;101355.14;1738328;81;21038;-71
2021/10/06 05:51:30;;;;;;;15.63;10.95;;;;;;;8.98;75.18;101358.39;1738243;82;21049;-71
2021/10/06 05:53:57;;;;;;;19.62;12.18;;;;;;;9.20;74.89;101352.03;1736275;81;21022;-70
2021/10/06 05:56:23;;;;;;;;;;;;;;;9.46;73.94;101351.75;1727972;83;21054;-70
2021/10/06 05:58:49;;;;;;;16.17;10.55;;;;;;;9.72;72.83;101354.71;1728245;81;20127;-71
2021/10/06 06:01:17;;;;;;;13.08;9.30;;;;;;;9.80;72.42;101357.97;1737688;82;21126;-72
2021/10/06 06:03:44;;;;;;;13.72;9.25;;;;;;;9.95;71.89;101363.02;1731069;82;21494;-72
2021/10/06 06:06:10;;;;;;;10.65;8.15;;;;;;;10.09;71.34;101358.23;1707736;83;21098;-72
2021/10/06 06:08:37;;;;;;;12.03;8.23;;;;;;;10.26;70.61;101362.02;1725809;83;21030;-72
2021/10/06 06:11:04;;;;;;;15.45;8.70;;;;;;;10.45;70.20;101364.44;1723439;82;21043;-71
2021/10/06 06:13:30;;;;;;;13.98;8.68;;;;;;;10.69;69.46;101353.63;1698853;83;21493;-71
2021/10/06 06:15:58;;;;;;;13.58;9.88;;;;;;;10.77;68.44;101351.95;1698577;82;21043;-72
2021/10/06 06:18:24;;;;;;;;;;;;;;;10.80;67.89;101347.39;1721246;82;20958;-71
2021/10/06 06:20:50;;;;;;;13.03;7.83;;;;;;;10.91;67.60;101353.39;1706531;83;20119;-71
2021/10/06 06:23:16;;;;;;;12.82;8.53;;;;;;;10.97;66.80;101357.36;1696315;83;21046;-73
2021/10/06 06:25:43;;;;;;;;;;;;;;;10.96;66.67;101357.58;1697745;84;21545;-72
2021/10/06 06:28:09;;;;;;;11.63;8.33;;;;;;;11.05;67.00;101352.10;1641247;85;20141;-70
2021/10/06 06:30:36;;;;;;;11.57;8.63;;;;;;;11.08;66.60;101350.27;1680174;83;21586;-70
2021/10/06 06:33:02;;;;;;;13.20;9.03;;;;;;;11.25;66.44;101353.10;1685445;83;21003;-70
2021/10/06 06:35:30;;;;;;;13.32;9.28;;;;;;;11.55;65.89;101352.42;1725603;82;21122;-71
2021/10/06 06:37:56;;;;;;;13.13;8.88;;;;;;;11.79;65.33;101351.90;1713759;82;20991;-71
2021/10/06 06:40:23;;;;;;;14.40;8.98;;;;;;;11.98;64.91;101345.19;1721927;82;21137;-70
2021/10/06 06:42:50;;;;;;;11.78;7.60;;;;;;;12.17;63.63;101352.67;1725590;83;21071;-71
2021/10/06 06:45:16;;;;;;;13.75;8.30;;;;;;;12.18;62.77;101346.14;1725324;83;21116;-71
2021/10/06 06:47:44;;;;;;;10.15;7.97;;;;;;;12.14;62.86;101353.16;1725370;83;21510;-70
2021/10/06 06:50:12;;;;;;;11.85;8.50;;;;;;;12.24;62.51;101350.09;1690480;83;21074;-70
2021/10/06 06:52:39;;;;;;;13.90;8.30;;;;;;;12.26;61.97;101347.93;1685138;83;20995;-70
2021/10/06 06:55:06;;;;;;;11.18;8.73;;;;;;;12.25;61.99;101349.03;1725521;82;21078;-71
2021/10/06 06:57:33;;;;;;;10.63;8.25;;;;;;;12.35;61.77;101347.84;1723627;83;21514;-70
2021/10/06 06:59:59;;;;;;;14.55;8.18;;;;;;;12.41;61.34;101344.12;1725780;82;21055;-71
2021/10/06 07:02:26;;;;;;;11.48;9.00;;;;;;;12.46;61.17;101342.03;1725888;83;21502;-70
2021/10/06 07:04:52;;;;;;;10.88;7.78;;;;;;;12.50;61.17;101347.30;1725613;82;21047;-70
2021/10/06 07:07:18;;;;;;;14.60;9.13;;;;;;;12.70;60.92;101358.59;1719750;83;21471;-70
2021/10/06 07:09:49;;;;;;;10.30;7.83;;;;;;;12.89;60.34;101355.89;1661620;86;21660;-70
2021/10/06 07:12:16;;;;;;;13.88;9.65;;;;;;;13.08;60.03;101363.85;1716405;82;20997;-70
2021/10/06 07:14:43;;;;;;;14.65;9.18;;;;;;;13.13;58.95;101353.88;1743576;81;21588;-70
2021/10/06 07:17:09;;;;;;;11.38;8.35;;;;;;;13.17;59.35;101359.14;1729615;82;20999;-70
2021/10/06 07:19:36;;;;;;;10.63;8.18;;;;;;;13.39;59.23;101366.04;1725154;83;21747;-70
2021/10/06 07:22:04;;;;;;;9.38;7.78;;;;;;;13.54;58.46;101354.46;1725344;83;21058;-70
2021/10/06 07:24:31;;;;;;;10.18;8.28;;;;;;;13.66;58.04;101362.03;1714554;82;21597;-71
2021/10/06 07:26:57;;;;;;;;;;;;;;;13.82;57.94;101353.77;1678602;83;21014;-71
2021/10/06 07:29:24;;;;;;;10.68;7.50;;;;;;;13.92;57.26;101359.36;1684755;83;20145;-70
2021/10/06 07:31:50;;;;;;;12.28;8.78;;;;;;;13.85;56.96;101367.51;1718207;83;21700;-70
2021/10/06 07:34:17;;;;;;;;;;;;;;;13.95;56.95;101360.25;1720282;83;21529;-70
2021/10/06 07:36:43;;;;;;;10.53;8.13;;;;;;;14.10;57.08;101362.31;1717947;83;20135;-70
2021/10/06 07:39:10;;;;;;;12.95;8.95;;;;;;;14.25;56.25;101359.77;1702677;82;21362;-70
2021/10/06 07:41:37;;;;;;;11.53;8.30;;;;;;;14.40;55.70;101361.88;1713407;82;21021;-70
2021/10/06 07:44:04;;;;;;;11.65;8.43;;;;;;;14.59;55.34;101359.62;1714645;83;21600;-70
2021/10/06 07:46:30;;;;;;;10.03;8.38;;;;;;;14.79;54.91;101361.17;1708883;82;21616;-70
2021/10/06 07:48:56;;;;;;;9.78;8.00;;;;;;;14.94;54.26;101362.69;1710212;82;21051;-70
2021/10/06 07:51:23;;;;;;;;;;;;;;;15.07;53.89;101366.34;1726202;83;21027;-70
2021/10/06 07:53:49;;;;;;;11.90;7.90;;;;;;;15.22;53.56;101366.48;1706183;83;20123;-72
2021/10/06 07:56:16;;;;;;;11.93;7.25;;;;;;;15.26;52.86;101364.87;1717736;83;21051;-71
2021/10/06 07:58:43;;;;;;;10.32;7.00;;;;;;;15.36;52.81;101359.98;1715544;83;21052;-71
2021/10/06 08:01:09;;;;;;;11.18;7.17;;;;;;;15.49;52.13;101357.34;1717819;83;21051;-71
2021/10/06 08:03:36;;;;;;;9.08;7.33;;;;;;;15.55;51.33;101358.50;1712558;83;21059;-70
2021/10/06 08:06:02;;;;;;;11.25;6.87;;;;;;;15.53;50.95;101358.47;1714792;83;21062;-69
2021/10/06 08:08:29;;;;;;;8.63;6.35;;;;;;;15.61;51.11;101352.48;1713776;82;20999;-71
2021/10/06 08:10:59;;;;;;;9.08;6.75;;;;;;;15.65;50.69;101348.12;1687254;84;21095;-70
2021/10/06 08:13:26;;;;;;;7.92;5.90;;;;;;;15.75;50.31;101350.91;1692593;83;20971;-70
2021/10/06 08:15:53;;;;;;;8.83;6.40;;;;;;;15.89;50.49;101347.95;1708440;83;21502;-70
2021/10/06 08:18:20;;;;;;;8.08;5.83;;;;;;;16.14;50.06;101349.44;1709925;82;20987;-70
2021/10/06 08:20:50;;;;;;;10.58;7.60;;;;;;;16.34;49.67;101343.16;1719501;83;21114;-70
2021/10/06 08:23:17;;;;;;;9.48;6.55;;;;;;;16.67;49.15;101352.34;1713261;83;20976;-69
2021/10/06 08:25:44;;;;;;;8.60;6.22;;;;;;;16.95;47.74;101345.47;1715092;82;21410;-70
2021/10/06 08:28:11;;;;;;;9.50;6.87;;;;;;;17.08;47.36;101338.58;1698163;83;20972;-71
2021/10/06 08:30:38;;;;;;;9.75;6.22;;;;;;;17.26;46.78;101338.02;1661284;86;21070;-70
2021/10/06 08:33:04;;;;;;;7.72;5.30;;;;;;;17.41;45.74;101338.00;1717997;83;21019;-70
2021/10/06 08:35:31;;;;;;;8.98;5.35;;;;;;;17.41;45.63;101335.24;1723505;82;21106;-70
2021/10/06 08:37:59;;;;;;;10.03;6.03;;;;;;;17.43;45.48;101336.61;1719230;82;21633;-69
2021/10/06 08:40:25;;;;;;;10.63;7.20;;;;;;;17.40;45.59;101330.28;1716990;82;21031;-69
2021/10/06 08:42:52;;;;;;;11.20;6.03;;;;;;;17.58;45.78;101336.33;1725561;83;21019;-71
2021/10/06 08:45:18;;;;;;;5.62;4.40;;;;;;;17.85;43.76;101324.41;1722984;83;21023;-71
2021/10/06 08:47:45;;;;;;;7.25;5.25;;;;;;;17.91;42.52;101324.66;1723930;82;21041;-70
2021/10/06 08:50:19;;;;;;;6.35;4.85;;;;;;;17.77;41.78;101327.20;1725284;81;21490;-68
2021/10/06 08:52:47;;;;;;;5.90;4.50;;;;;;;17.71;42.28;101321.98;1731013;82;20991;-66
2021/10/06 08:55:13;;;;;;;7.87;4.80;;;;;;;17.73;41.98;101325.27;1725496;83;21035;-66
2021/10/06 08:57:40;;;;;;;6.65;4.78;;;;;;;17.83;43.12;101331.57;1725077;83;21023;-67
2021/10/06 09:00:08;;;;;;;9.60;4.60;;;;;;;18.04;43.26;101323.20;1720833;83;21057;-66
2021/10/06 09:02:39;;;;;;;6.60;4.83;;;;;;;18.06;41.61;101319.08;1690361;85;21050;-66
2021/10/06 09:05:07;;;;;;;6.37;4.53;;;;;;;18.05;41.97;101327.62;1690616;85;21038;-66
2021/10/06 09:07:41;;;;;;;7.83;4.50;;;;;;;18.18;40.59;101326.44;1725354;83;21039;-66
2021/10/06 09:10:14;;;;;;;5.95;4.25;;;;;;;18.33;40.45;101321.40;1636904;86;21081;-70
2021/10/06 09:12:41;;;;;;;6.87;4.42;;;;;;;18.50;39.88;101325.14;1726486;82;20991;-69
2021/10/06 09:15:10;;;;;;;5.20;3.30;;;;;;;18.53;38.50;101319.91;1637873;85;21046;-68
2021/10/06 09:17:37;;;;;;;4.70;3.62;;;;;;;18.40;38.10;101314.47;1725842;82;21039;-69
2021/10/06 09:20:09;;;;;;;11.53;8.28;;;;;;;18.32;37.85;101309.55;1661279;83;20987;-69
2021/10/06 09:22:36;;;;;;;6.90;4.72;;;;;;;18.37;38.11;101311.45;1703815;82;21047;-69
2021/10/06 09:25:06;;;;;;;9.80;3.85;;;;;;;18.42;38.07;101309.23;1685627;83;20999;-69
2021/10/06 09:27:36;;;;;;;9.63;5.47;;;;;;;18.21;38.01;101305.20;1711356;82;21003;-68
2021/10/06 09:30:13;;;;;;;8.10;5.40;;;;;;;17.62;37.95;101309.34;1707346;82;21074;-70
2021/10/06 09:32:42;;;;;;;8.38;5.85;;;;;;;17.25;39.62;101308.29;1720333;82;21472;-70
2021/10/06 09:35:15;;;;;;;6.03;4.30;;;;;;;17.31;39.13;101298.94;1728414;81;21530;-69
2021/10/06 09:37:49;;;;;;;8.23;4.75;;;;;;;17.17;38.76;101307.50;1724941;83;21039;-69
2021/10/06 09:40:18;;;;;;;5.20;4.05;;;;;;;16.95;38.81;101311.09;1725450;83;21007;-69
2021/10/06 09:44:06;;;;;;;7.95;4.37;;;;;;;16.48;38.54;101306.35;1795646;79;22869;-71
2021/10/06 09:46:41;;;;;;;9.60;4.60;;;;;;;15.99;38.47;101306.80;1753000;82;21486;-72
2021/10/06 09:49:21;;;;;;;10.55;5.70;;;;;;;15.55;39.62;101317.88;1752988;81;21594;-72
2021/10/06 09:51:49;;;;;;;7.42;5.28;;;;;;;15.21;40.95;101316.80;1753025;82;21536;-73
2021/10/06 09:54:15;;;;;;;7.00;3.92;;;;;;;14.87;41.55;101318.20;1752644;82;21000;-72
2021/10/06 09:56:43;;;;;;;8.38;4.10;;;;;;;14.64;42.04;101319.38;1753088;82;20984;-72
2021/10/06 09:59:13;;;;;;;7.17;3.90;;;;;;;14.44;41.86;101321.92;1752915;82;21041;-72
2021/10/06 10:01:44;;;;;;;7.92;3.65;;;;;;;14.29;41.61;101322.56;1753173;81;20983;-72
2021/10/06 10:04:11;;;;;;;8.13;3.22;;;;;;;14.12;41.31;101317.72;1752852;81;21043;-72
2021/10/06 10:06:38;;;;;;;7.60;3.90;;;;;;;13.97;42.01;101317.54;1753283;82;21569;-72
2021/10/06 10:09:09;;;;;;;10.50;3.90;;;;;;;13.87;41.78;101311.41;1752848;82;21025;-73
2021/10/06 10:11:37;;;;;;;5.75;2.70;;;;;;;13.94;42.34;101315.32;1723591;82;21003;-73
2021/10/06 10:14:05;;;;;;;5.78;2.80;;;;;;;14.08;41.79;101315.21;1752937;82;21043;-71
2021/10/06 10:16:32;;;;;;;3.95;2.60;;;;;;;14.25;40.67;101322.79;1753147;81;20995;-71
2021/10/06 10:19:12;;;;;;;5.03;2.60;;;;;;;14.35;40.18;101309.22;1752983;82;21026;-71
2021/10/06 10:21:42;;;;;;;8.30;2.80;;;;;;;14.48;40.23;101302.52;1753093;82;20944;-71
2021/10/06 10:24:14;;;;;;;4.65;2.35;;;;;;;14.63;38.75;101307.31;1723995;82;21031;-71
2021/10/06 10:27:05;;;;;;;5.50;2.17;;;;;;;14.73;38.10;101300.55;1753185;82;21878;-71
2021/10/06 10:29:36;;;;;;;8.73;2.30;;;;;;;14.77;37.60;101307.16;1752910;82;21012;-72
2021/10/06 10:32:14;;;;;;;4.08;2.40;;;;;;;14.74;37.06;101294.78;1752957;82;21038;-71
2021/10/06 10:35:04;;;;;;;4.97;2.83;;;;;;;14.68;36.89;101304.59;1721921;82;21015;-71
2021/10/06 10:37:53;;;;;;;6.33;3.08;;;;;;;14.47;37.18;101301.39;1752900;82;21011;-71
2021/10/06 10:40:44;;;;;;;4.42;2.60;;;;;;;14.27;37.54;101304.20;1753012;82;21023;-71
2021/10/06 10:43:15;;;;;;;3.40;2.40;;;;;;;14.17;36.80;101302.70;1753270;81;21042;-71
2021/10/06 10:46:11;;;;;;;4.83;2.60;;;;;;;14.17;37.10;101304.06;1754069;82;20968;-72
2021/10/06 10:48:56;;;;;;;5.62;2.50;;;;;;;14.23;37.43;101307.17;1753611;82;21011;-71
2021/10/06 10:51:46;;;;;;;6.33;2.70;;;;;;;14.30;36.63;101306.95;1752736;82;20980;-70
2021/10/06 10:54:37;;;;;;;5.65;2.47;;;;;;;14.31;36.67;101312.73;1753188;82;21035;-71
2021/10/06 10:57:20;;;;;;;6.22;2.02;;;;;;;14.27;36.63;101311.59;1753264;82;20986;-71
2021/10/06 10:59:49;;;;;;;3.83;2.20;;;;;;;14.21;36.04;101294.80;1750228;82;21031;-71
2021/10/06 11:02:22;;;;;;;6.53;3.17;;;;;;;14.26;36.36;101297.59;1753323;82;21058;-72
2021/10/06 11:05:06;;;;;;;6.87;3.00;;;;;;;14.34;36.58;101300.75;1753255;82;21090;-71
2021/10/06 11:07:49;;;;;;;5.33;2.77;;;;;;;14.41;36.57;101307.38;1753171;82;21474;-71
2021/10/06 11:10:16;;;;;;;4.55;2.40;;;;;;;14.29;36.03;101306.66;1752257;82;21090;-72
2021/10/06 11:13:03;;;;;;;4.33;2.15;;;;;;;14.05;35.19;101303.41;1753150;82;21401;-72
2021/10/06 11:15:26;;;;;;;4.17;2.20;;;;;;;13.92;35.23;101288.75;1752270;82;21550;-70
2021/10/06 11:18:17;;;;;;;4.05;2.55;;;;;;;13.90;35.45;101303.22;1753264;82;20983;-71
2021/10/06 11:20:58;;;;;;;3.92;2.20;;;;;;;13.78;35.27;101301.97;1753191;82;21058;-71
2021/10/06 11:23:36;;;;;;;4.42;2.27;;;;;;;13.60;36.22;101296.02;1752900;82;20975;-71
2021/10/06 11:26:07;;;;;;;3.52;2.10;;;;;;;13.54;36.31;101306.05;1753252;82;21043;-71
2021/10/06 11:28:40;;;;;;;6.42;2.10;;;;;;;13.49;36.23;101312.00;1753171;82;21034;-71
2021/10/06 11:31:06;;;;;;;3.45;2.20;;;;;;;13.50;36.98;101317.77;1753015;82;21027;-71
2021/10/06 11:33:33;;;;;;;4.05;2.10;;;;;;;13.55;37.21;101304.14;1753140;82;21018;-70